Time;durP1;ratioP1;P1;durP2;ratioP2;P2;SDS_P1;SDS_P2;PMS_P1;PMS_P2;Temp;Humidity;BMP_temperature;BMP_pressure;BME280_temperature;BME280_humidity;BME280_pressure;Samples;Min_cycle;Max_cycle;Signal;HPM_P1;HPM_P2
2021/03/12 00:01:35;;;;;;;;;;;;;;;18.13;69.63;101272.97;5089605;28;1203;-70
2021/03/12 00:04:02;;;;;;;;;;;;;;;18.13;69.60;101262.41;5090499;28;836;-70
2021/03/12 00:06:28;;;;;;;;;;;;;;;18.11;69.65;101261.66;5090215;28;1192;-70
2021/03/12 00:08:54;;;;;;;;;;;;;;;18.11;69.63;101259.00;5090000;28;995;-70
2021/03/12 00:11:31;;;;;;;;;;;;;;;18.10;69.67;101252.00;5073301;28;1298;-70
2021/03/12 00:13:57;;;;;;;;;;;;;;;18.11;69.66;101256.38;5090250;28;1989;-70
2021/03/12 00:16:24;;;;;;;;;;;;;;;18.10;69.70;101257.28;5071325;28;1406;-70
2021/03/12 00:18:50;;;;;;;;;;;;;;;18.10;69.86;101257.28;5089993;28;758;-70
2021/03/12 00:21:16;;;;;;;;;;;;;;;18.10;69.81;101257.28;5090048;28;1272;-70
2021/03/12 00:23:43;;;;;;;;;;;;;;;18.09;69.63;101260.88;5089782;28;1059;-70
2021/03/12 00:26:09;;;;;;;;;;;;;;;18.07;69.74;101254.78;5089902;28;1310;-68
2021/03/12 00:28:36;;;;;;;;;;;;;;;18.08;69.73;101248.59;5089780;28;824;-68
2021/03/12 00:31:03;;;;;;;;;;;;;;;18.08;69.51;101253.88;5089430;28;1322;-68
2021/03/12 00:33:30;;;;;;;;;;;;;;;18.07;69.76;101245.09;5089435;28;786;-68
2021/03/12 00:35:56;;;;;;;;;;;;;;;18.09;69.55;101245.06;5070904;28;1914;-69
2021/03/12 00:38:23;;;;;;;;;;;;;;;18.08;69.63;101245.97;5087928;28;1414;-68
2021/03/12 00:40:54;;;;;;;;;;;;;;;18.07;69.68;101249.50;5071087;28;1283;-68
2021/03/12 00:43:20;;;;;;;;;;;;;;;18.07;69.71;101252.16;5089523;28;1164;-69
2021/03/12 00:45:48;;;;;;;;;;;;;;;18.06;69.72;101247.78;5087645;28;1313;-70
2021/03/12 00:48:15;;;;;;;;;;;;;;;18.05;69.80;101246.09;5087687;28;1693;-70
2021/03/12 00:50:41;;;;;;;;;;;;;;;18.07;69.69;101246.88;5087828;28;1298;-68
2021/03/12 00:53:08;;;;;;;;;;;;;;;18.06;69.69;101250.44;5088204;28;892;-69
2021/03/12 00:55:35;;;;;;;;;;;;;;;18.04;69.69;101237.34;5088863;28;1906;-68
2021/03/12 00:58:02;;;;;;;;;;;;;;;18.04;69.68;101242.59;5089021;28;781;-68
2021/03/12 01:00:30;;;;;;;;;;;;;;;18.03;69.72;101249.66;5088832;28;1192;-68
2021/03/12 01:02:57;;;;;;;;;;;;;;;18.03;69.66;101247.03;5089369;28;847;-68
2021/03/12 01:05:24;;;;;;;;;;;;;;;18.04;69.71;101250.53;5087575;28;1372;-68
2021/03/12 01:07:50;;;;;;;;;;;;;;;18.03;69.60;101249.66;5088151;28;954;-68
2021/03/12 01:10:17;;;;;;;;;;;;;;;18.05;69.53;101254.00;5088922;28;1330;-70
2021/03/12 01:12:43;;;;;;;;;;;;;;;18.03;69.59;101262.84;5089190;28;992;-69
2021/03/12 01:15:11;;;;;;;;;;;;;;;18.03;69.76;101270.75;5088209;28;1906;-69
2021/03/12 01:17:38;;;;;;;;;;;;;;;18.02;69.78;101276.94;5087324;28;790;-69
2021/03/12 01:20:09;;;;;;;;;;;;;;;18.02;69.83;101266.38;5089182;28;1119;-69
2021/03/12 01:22:36;;;;;;;;;;;;;;;18.03;69.72;101268.09;5089391;28;907;-69
2021/03/12 01:25:05;;;;;;;;;;;;;;;18.02;69.68;101269.03;5089023;28;785;-69
2021/03/12 01:27:38;;;;;;;;;;;;;;;18.01;69.74;101266.47;5089236;28;1288;-71
2021/03/12 01:30:07;;;;;;;;;;;;;;;18.02;69.65;101273.47;5088851;28;860;-69
2021/03/12 01:32:33;;;;;;;;;;;;;;;18.01;69.64;101274.38;5087672;28;1286;-71
2021/03/12 01:35:01;;;;;;;;;;;;;;;18.01;69.54;101277.88;5088641;28;1975;-69
2021/03/12 01:37:27;;;;;;;;;;;;;;;18.01;69.51;101272.59;5088384;28;1310;-70
2021/03/12 01:39:53;;;;;;;;;;;;;;;18.00;69.39;101276.16;5088605;28;884;-70
2021/03/12 01:42:20;;;;;;;;;;;;;;;18.00;69.58;101262.13;5088960;28;1228;-70
2021/03/12 01:44:46;;;;;;;;;;;;;;;18.00;69.39;101267.38;5088590;28;837;-70
2021/03/12 01:47:13;;;;;;;;;;;;;;;18.00;69.35;101260.34;5088619;28;1196;-70
2021/03/12 01:49:39;;;;;;;;;;;;;;;17.99;69.40;101260.44;5086902;28;1354;-70
2021/03/12 01:52:06;;;;;;;;;;;;;;;17.99;69.46;101263.91;5088200;28;1216;-69
2021/03/12 01:54:35;;;;;;;;;;;;;;;18.00;69.43;101262.97;5087588;28;1964;-70
2021/03/12 01:57:03;;;;;;;;;;;;;;;18.00;69.30;101256.84;5088565;28;1321;-70
2021/03/12 01:59:29;;;;;;;;;;;;;;;17.98;69.41;101248.16;5087017;28;1313;-70
2021/03/12 02:01:56;;;;;;;;;;;;;;;18.00;69.46;101251.56;5087031;28;1312;-70
2021/03/12 02:04:22;;;;;;;;;;;;;;;17.98;69.51;101253.44;5086992;28;917;-70
2021/03/12 02:06:49;;;;;;;;;;;;;;;18.00;69.44;101255.06;5088381;28;1305;-70
2021/03/12 02:09:16;;;;;;;;;;;;;;;17.98;69.57;101253.44;5088382;28;1320;-71
2021/03/12 02:11:44;;;;;;;;;;;;;;;17.97;69.56;101246.44;5088094;28;1301;-70
2021/03/12 02:14:15;;;;;;;;;;;;;;;17.97;69.40;101242.03;5088128;28;1950;-71
2021/03/12 02:16:45;;;;;;;;;;;;;;;17.98;69.58;101242.91;5086935;28;1386;-70
2021/03/12 02:19:20;;;;;;;;;;;;;;;17.96;69.49;101232.41;5088048;28;846;-69
2021/03/12 02:21:50;;;;;;;;;;;;;;;17.95;69.50;101233.34;5088408;28;1248;-68
2021/03/12 02:24:29;;;;;;;;;;;;;;;17.95;69.68;101230.72;5088366;28;837;-68
2021/03/12 02:27:00;;;;;;;;;;;;;;;17.96;69.76;101219.22;5090743;28;1257;-68
2021/03/12 02:29:27;;;;;;;;;;;;;;;17.95;69.71;101228.06;5091747;28;805;-68
2021/03/12 02:31:55;;;;;;;;;;;;;;;17.95;69.63;101212.25;5091989;28;1964;-68
2021/03/12 02:34:24;;;;;;;;;;;;;;;17.95;69.68;101212.25;5091596;28;1910;-68
2021/03/12 02:36:52;;;;;;;;;;;;;;;17.94;69.62;101210.53;5091950;28;1836;-67
2021/03/12 02:39:20;;;;;;;;;;;;;;;17.94;69.82;101210.53;5091778;28;790;-69
2021/03/12 02:41:50;;;;;;;;;;;;;;;17.94;69.74;101197.38;5091611;28;1244;-69
2021/03/12 02:44:17;;;;;;;;;;;;;;;17.94;69.74;101193.88;5092065;28;1292;-69
2021/03/12 02:46:45;;;;;;;;;;;;;;;17.95;69.91;101195.59;5091958;28;1498;-69
2021/03/12 02:49:12;;;;;;;;;;;;;;;17.94;69.64;101194.72;5090012;28;1456;-70
2021/03/12 02:51:38;;;;;;;;;;;;;;;17.95;69.69;101195.59;5089813;28;1228;-71
2021/03/12 02:54:05;;;;;;;;;;;;;;;17.94;69.66;101194.72;5090186;28;1062;-71
2021/03/12 02:56:31;;;;;;;;;;;;;;;17.94;69.77;101193.88;5091143;28;1973;-72
2021/03/12 02:58:58;;;;;;;;;;;;;;;17.93;69.85;101197.44;5091555;28;1205;-70
2021/03/12 03:01:26;;;;;;;;;;;;;;;17.93;69.80;101198.28;5090740;28;1303;-70
2021/03/12 03:03:54;;;;;;;;;;;;;;;17.93;69.78;101193.00;5091444;28;1062;-70
2021/03/12 03:06:20;;;;;;;;;;;;;;;17.92;69.91;101191.31;5091073;28;1326;-70
2021/03/12 03:08:47;;;;;;;;;;;;;;;17.93;69.73;101197.44;5091453;28;1098;-70
2021/03/12 03:11:14;;;;;;;;;;;;;;;17.93;69.74;101194.81;5072731;28;1268;-71
2021/03/12 03:13:56;;;;;;;;;;;;;;;17.93;69.71;101193.00;5091208;28;1166;-71
2021/03/12 03:16:25;;;;;;;;;;;;;;;17.93;70.00;101192.19;5090778;28;1897;-70
2021/03/12 03:18:52;;;;;;;;;;;;;;;17.93;69.62;101192.19;5089667;28;1079;-69
2021/03/12 03:21:19;;;;;;;;;;;;;;;17.93;69.87;101200.09;5089382;28;1342;-69
2021/03/12 03:23:46;;;;;;;;;;;;;;;17.93;69.92;101202.72;5091003;28;1115;-69
2021/03/12 03:26:13;;;;;;;;;;;;;;;17.91;70.02;101194.88;5090889;28;1224;-69
2021/03/12 03:28:39;;;;;;;;;;;;;;;17.92;69.86;101193.09;5090892;28;1172;-69
2021/03/12 03:31:06;;;;;;;;;;;;;;;17.92;69.88;101195.72;5089209;28;1263;-69
2021/03/12 03:33:33;;;;;;;;;;;;;;;17.93;69.81;101194.81;5090828;28;1065;-69
2021/03/12 03:36:00;;;;;;;;;;;;;;;17.93;69.92;101202.72;5088710;28;1981;-67
2021/03/12 03:38:27;;;;;;;;;;;;;;;17.91;69.87;101196.66;5090350;28;1860;-68
2021/03/12 03:40:53;;;;;;;;;;;;;;;17.92;69.75;101204.50;5089545;28;1196;-69
2021/03/12 03:43:27;;;;;;;;;;;;;;;17.92;69.92;101201.00;5088883;28;1202;-70
2021/03/12 03:46:00;;;;;;;;;;;;;;;17.92;69.83;101204.50;5088828;28;1264;-70
2021/03/12 03:48:27;;;;;;;;;;;;;;;17.92;69.90;101217.69;5088725;28;1728;-70
2021/03/12 03:50:54;;;;;;;;;;;;;;;17.92;69.93;101207.13;5088942;28;1252;-70
2021/03/12 03:53:21;;;;;;;;;;;;;;;17.91;69.85;101202.78;5090465;28;1200;-70
2021/03/12 03:55:48;;;;;;;;;;;;;;;17.90;69.99;101202.88;5090164;28;1966;-69
2021/03/12 03:58:15;;;;;;;;;;;;;;;17.91;69.84;101208.03;5089895;28;1061;-69
2021/03/12 04:00:42;;;;;;;;;;;;;;;17.91;69.94;101202.78;5089872;28;1275;-69
2021/03/12 04:03:09;;;;;;;;;;;;;;;17.91;69.85;101208.03;5088599;28;1233;-69
2021/03/12 04:05:36;;;;;;;;;;;;;;;17.91;70.06;101221.22;5089954;28;1294;-69
2021/03/12 04:08:03;;;;;;;;;;;;;;;17.91;69.90;101225.63;5090245;28;1133;-70
2021/03/12 04:10:29;;;;;;;;;;;;;;;17.91;69.82;101226.50;5088407;28;1170;-70
2021/03/12 04:12:56;;;;;;;;;;;;;;;17.90;70.11;101234.50;5089514;28;1068;-68
2021/03/12 04:15:32;;;;;;;;;;;;;;;17.91;70.03;101230.91;5059764;28;1905;-68
2021/03/12 04:18:01;;;;;;;;;;;;;;;17.90;69.99;101229.22;5070831;28;1292;-67
2021/03/12 04:20:30;;;;;;;;;;;;;;;17.89;69.98;101225.72;5087473;28;1369;-68
2021/03/12 04:23:01;;;;;;;;;;;;;;;17.90;70.28;101235.31;5087764;28;1017;-67
2021/03/12 04:25:55;;;;;;;;;;;;;;;17.90;70.15;101235.31;5087838;28;1311;-67
2021/03/12 04:28:29;;;;;;;;;;;;;;;17.90;70.12;101245.03;5087191;28;960;-68
2021/03/12 04:31:07;;;;;;;;;;;;;;;17.90;69.95;101258.22;5089159;28;1220;-67
2021/03/12 04:33:35;;;;;;;;;;;;;;;17.89;70.23;101252.09;5088608;28;1115;-67
2021/03/12 04:36:01;;;;;;;;;;;;;;;17.89;70.29;101262.63;5088047;28;1914;-69
2021/03/12 04:38:28;;;;;;;;;;;;;;;17.89;70.09;101260.00;5088485;28;885;-70
2021/03/12 04:40:54;;;;;;;;;;;;;;;17.87;70.34;101272.34;5088519;28;1177;-70
2021/03/12 04:43:21;;;;;;;;;;;;;;;17.88;70.36;101263.53;5088532;28;936;-70
2021/03/12 04:45:48;;;;;;;;;;;;;;;17.89;70.15;101267.91;5088257;28;1276;-70
2021/03/12 04:48:15;;;;;;;;;;;;;;;17.88;70.33;101274.06;5086288;28;1447;-70
2021/03/12 04:50:43;;;;;;;;;;;;;;;17.90;70.37;101282.75;5087999;28;1201;-70
2021/03/12 04:53:10;;;;;;;;;;;;;;;17.89;70.22;101280.22;5088712;28;979;-70
2021/03/12 04:55:37;;;;;;;;;;;;;;;17.86;70.27;101270.66;5087594;28;1978;-69
2021/03/12 04:58:13;;;;;;;;;;;;;;;17.86;70.24;101275.06;5081819;28;1615;-67
2021/03/12 05:00:57;;;;;;;;;;;;;;;17.87;70.36;101282.91;5067280;28;1337;-68
2021/03/12 05:03:33;;;;;;;;;;;;;;;17.88;70.32;101279.34;5051403;28;1481;-69
2021/03/12 05:06:03;;;;;;;;;;;;;;;17.85;70.27;101284.75;5069070;28;1283;-69
2021/03/12 05:08:30;;;;;;;;;;;;;;;17.87;70.43;101287.34;5067813;28;1004;-69
2021/03/12 05:11:07;;;;;;;;;;;;;;;17.89;70.49;101290.75;5067506;28;1375;-68
2021/03/12 05:13:33;;;;;;;;;;;;;;;17.86;70.56;101286.47;5050946;28;1199;-70
2021/03/12 05:16:00;;;;;;;;;;;;;;;17.87;70.43;101288.16;5068797;28;1996;-69
2021/03/12 05:18:27;;;;;;;;;;;;;;;17.87;70.72;101297.88;5069122;28;1049;-68
2021/03/12 05:20:54;;;;;;;;;;;;;;;17.86;70.54;101297.03;5069255;28;1172;-69
2021/03/12 05:23:22;;;;;;;;;;;;;;;17.86;70.61;101307.56;5068982;28;1715;-69
2021/03/12 05:25:49;;;;;;;;;;;;;;;17.87;70.47;101311.88;5072313;28;1318;-68
2021/03/12 05:28:15;;;;;;;;;;;;;;;17.86;70.74;101318.09;5067767;28;1150;-69
2021/03/12 05:30:42;;;;;;;;;;;;;;;17.85;70.74;101318.16;5068859;28;1236;-69
2021/03/12 05:33:09;;;;;;;;;;;;;;;17.86;70.83;101327.78;5078400;28;1561;-69
2021/03/12 05:35:35;;;;;;;;;;;;;;;17.86;70.73;101322.50;5074135;28;1975;-69
2021/03/12 05:38:02;;;;;;;;;;;;;;;17.83;70.80;101323.50;5082979;28;1201;-70
2021/03/12 05:40:28;;;;;;;;;;;;;;;17.85;70.69;101326.06;5088503;28;1208;-69
2021/03/12 05:42:55;;;;;;;;;;;;;;;17.86;70.81;101338.34;5088302;28;1041;-69
2021/03/12 05:45:22;;;;;;;;;;;;;;;17.87;70.73;101337.41;5087029;28;1216;-69
2021/03/12 05:47:49;;;;;;;;;;;;;;;17.85;70.69;101342.75;5081801;28;1556;-69
2021/03/12 05:50:16;;;;;;;;;;;;;;;17.84;70.68;101343.66;5076421;28;1410;-69
2021/03/12 05:52:44;;;;;;;;;;;;;;;17.85;70.65;101340.09;5076718;28;1120;-70
2021/03/12 05:55:11;;;;;;;;;;;;;;;17.85;70.79;101340.09;5066741;28;1981;-69
2021/03/12 05:57:38;;;;;;;;;;;;;;;17.84;70.60;101351.56;5068190;28;1155;-68
2021/03/12 06:00:04;;;;;;;;;;;;;;;17.83;70.80;101355.13;5069853;28;803;-69
2021/03/12 06:02:31;;;;;;;;;;;;;;;17.82;70.79;101348.16;5079278;28;1450;-68
2021/03/12 06:04:57;;;;;;;;;;;;;;;17.91;70.67;101346.88;5079017;28;1155;-69
2021/03/12 06:07:23;;;;;;;;;;;;;;;17.89;70.41;101344.31;5077526;28;1596;-69
2021/03/12 06:09:50;;;;;;;;;;;;;;;17.81;70.52;101340.31;5085219;28;900;-68
2021/03/12 06:12:16;;;;;;;;;;;;;;;17.88;70.45;101344.38;5076260;28;1279;-68
2021/03/12 06:14:55;;;;;;;;;;;;;;;17.86;70.54;101351.50;5076126;28;1976;-67
2021/03/12 06:17:32;;;;;;;;;;;;;;;17.86;70.63;101352.38;5090519;28;1329;-67
2021/03/12 06:19:59;;;;;;;;;;;;;;;17.86;70.53;101355.00;5091749;28;817;-69
2021/03/12 06:22:26;;;;;;;;;;;;;;;17.86;70.47;101355.00;5075460;28;1334;-68
2021/03/12 06:24:52;;;;;;;;;;;;;;;17.87;70.46;101354.06;5071562;28;795;-68
2021/03/12 06:27:28;;;;;;;;;;;;;;;17.86;70.41;101357.63;5071790;28;1248;-67
2021/03/12 06:29:58;;;;;;;;;;;;;;;17.91;70.27;101353.00;5072089;28;1051;-67
2021/03/12 06:32:37;;;;;;;;;;;;;;;17.88;70.32;101350.50;5070821;28;1462;-67
2021/03/12 06:35:04;;;;;;;;;;;;;;;17.88;70.31;101352.28;5076294;28;1913;-67
2021/03/12 06:37:31;;;;;;;;;;;;;;;17.88;70.18;101352.28;5092088;28;1232;-66
2021/03/12 06:39:57;;;;;;;;;;;;;;;17.91;70.40;101346.88;5072318;28;1205;-66
2021/03/12 06:42:25;;;;;;;;;;;;;;;17.91;70.24;101337.19;5071426;28;1232;-69
2021/03/12 06:44:51;;;;;;;;;;;;;;;17.87;70.19;101343.50;5072661;28;1322;-69
2021/03/12 06:47:22;;;;;;;;;;;;;;;17.87;70.08;101340.88;5091388;28;1557;-70
2021/03/12 06:49:53;;;;;;;;;;;;;;;17.92;70.05;101338.91;5064833;28;1135;-69
2021/03/12 06:52:30;;;;;;;;;;;;;;;17.92;70.08;101344.19;5090709;28;1331;-70
2021/03/12 06:54:56;;;;;;;;;;;;;;;17.89;70.09;101357.50;5069768;28;1906;-70
2021/03/12 06:57:22;;;;;;;;;;;;;;;17.89;70.00;101361.91;5071211;28;1292;-72
2021/03/12 06:59:59;;;;;;;;;;;;;;;18.00;70.14;101362.28;5069849;28;1232;-66
2021/03/12 07:02:34;;;;;;;;;;;;;;;18.07;70.15;101358.47;5075087;28;1307;-70
2021/03/12 07:05:01;;;;;;;;;;;;;;;17.96;69.91;101366.84;5091214;28;1178;-69
2021/03/12 07:07:47;;;;;;;;;;;;;;;18.00;69.81;101360.50;5092156;28;1339;-69
2021/03/12 07:10:14;;;;;;;;;;;;;;;18.02;70.35;101360.47;5074252;28;1303;-66
2021/03/12 07:12:50;;;;;;;;;;;;;;;17.97;69.76;101359.78;5070955;28;1231;-67
2021/03/12 07:15:17;;;;;;;;;;;;;;;18.13;70.43;101370.50;5071997;28;1909;-66
2021/03/12 07:17:44;;;;;;;;;;;;;;;18.08;69.41;101377.78;5089884;28;758;-66
2021/03/12 07:20:12;;;;;;;;;;;;;;;18.02;69.51;101386.81;5090219;28;1231;-67
2021/03/12 07:22:39;;;;;;;;;;;;;;;18.11;70.13;101390.84;5088528;28;853;-66
2021/03/12 07:25:06;;;;;;;;;;;;;;;18.04;69.56;101400.78;5086030;28;1516;-66
2021/03/12 07:27:33;;;;;;;;;;;;;;;18.00;69.56;101396.56;5077733;28;1389;-64
2021/03/12 07:30:00;;;;;;;;;;;;;;;17.96;69.43;101406.38;5069175;28;1028;-66
2021/03/12 07:32:29;;;;;;;;;;;;;;;18.08;70.24;101402.38;5068093;28;1217;-66
2021/03/12 07:34:56;;;;;;;;;;;;;;;18.17;69.98;101401.97;5073538;28;1910;-64
2021/03/12 07:37:23;;;;;;;;;;;;;;;18.27;70.03;101419.06;5088215;28;1411;-63
2021/03/12 07:39:50;;;;;;;;;;;;;;;18.13;69.89;101416.19;5089507;28;1035;-65
2021/03/12 07:42:18;;;;;;;;;;;;;;;18.07;71.25;101415.59;5089702;28;1224;-66
2021/03/12 07:44:45;;;;;;;;;;;;;;;18.23;72.34;101419.28;5078988;28;1064;-64
2021/03/12 07:47:24;;;;;;;;;;;;;;;18.39;71.81;101429.09;5067929;28;1395;-70
2021/03/12 07:49:51;;;;;;;;;;;;;;;18.28;71.04;101430.50;5070236;28;1368;-65
2021/03/12 07:52:38;;;;;;;;;;;;;;;18.29;67.27;101425.16;5088069;28;1275;-67
2021/03/12 07:55:05;;;;;;;;;;;;;;;18.25;71.15;101430.63;5086584;28;1914;-66
2021/03/12 07:57:38;;;;;;;;;;;;;;;18.16;70.65;101425.75;5088776;28;1208;-66
2021/03/12 08:00:05;;;;;;;;;;;;;;;18.11;70.38;101422.47;5097357;28;1069;-66
2021/03/12 08:02:56;;;;;;;;;;;;;;;18.06;70.40;101420.00;5107896;28;1368;-66
2021/03/12 08:05:36;;;;;;;;;;;;;;;18.08;69.98;101423.47;5106883;28;1212;-68
2021/03/12 08:08:03;;;;;;;;;;;;;;;18.10;69.65;101434.78;5110229;28;856;-67
2021/03/12 08:10:29;;;;;;;;;;;;;;;18.14;69.25;101439.03;5108311;28;1596;-67
2021/03/12 08:12:56;;;;;;;;;;;;;;;18.09;69.24;101424.31;5109844;28;851;-67
2021/03/12 08:15:22;;;;;;;;;;;;;;;18.15;69.12;101434.59;5109581;28;1910;-68
2021/03/12 08:17:57;;;;;;;;;;;;;;;18.14;68.77;101433.75;5109815;28;1114;-65
2021/03/12 08:20:40;;;;;;;;;;;;;;;18.15;68.90;101435.44;5099963;28;1352;-67
2021/03/12 08:23:07;;;;;;;;;;;;;;;18.17;68.73;101435.38;5089581;28;975;-66
2021/03/12 08:25:40;;;;;;;;;;;;;;;18.17;68.59;101438.03;5101885;28;1204;-67
2021/03/12 08:28:06;;;;;;;;;;;;;;;18.16;68.25;101426.63;5109930;28;864;-67
2021/03/12 08:30:35;;;;;;;;;;;;;;;18.17;68.38;101435.38;5109733;28;1250;-66
2021/03/12 08:33:03;;;;;;;;;;;;;;;18.18;68.17;101434.47;5109624;28;794;-65
2021/03/12 08:35:40;;;;;;;;;;;;;;;18.18;68.21;101439.75;5086675;28;1977;-65
2021/03/12 08:38:22;;;;;;;;;;;;;;;18.18;68.57;101434.47;5067646;28;778;-66
2021/03/12 08:41:07;;;;;;;;;;;;;;;18.25;66.01;101427.97;5099078;28;1315;-64
2021/03/12 08:43:34;;;;;;;;;;;;;;;17.94;62.03;101417.91;5092773;28;1267;-64
2021/03/12 08:46:11;;;;;;;;;;;;;;;17.77;59.47;101416.00;5094951;28;1290;-64
2021/03/12 08:48:37;;;;;;;;;;;;;;;17.71;58.67;101415.41;5106010;28;1709;-63
2021/03/12 08:51:08;;;;;;;;;;;;;;;17.66;58.48;101410.31;5105128;28;1228;-63
2021/03/12 08:53:38;;;;;;;;;;;;;;;17.60;58.17;101410.56;5107715;28;817;-64
2021/03/12 08:56:07;;;;;;;;;;;;;;;17.58;57.33;101420.34;5090112;28;1905;-65
2021/03/12 08:58:34;;;;;;;;;;;;;;;17.56;56.95;101416.06;5093153;28;1247;-67
2021/03/12 09:01:12;;;;;;;;;;;;;;;17.52;57.08;101417.91;5090771;28;1267;-67
2021/03/12 09:03:41;;;;;;;;;;;;;;;17.50;56.41;101406.59;5078785;28;1553;-68
2021/03/12 09:06:12;;;;;;;;;;;;;;;17.48;56.42;101405.78;5094289;28;1553;-66
2021/03/12 09:08:39;;;;;;;;;;;;;;;17.47;56.36;101409.34;5087913;28;1086;-67
2021/03/12 09:11:07;;;;;;;;;;;;;;;17.46;56.37;101413.75;5094935;28;1364;-66
2021/03/12 09:13:38;;;;;;;;;;;;;;;17.45;56.36;101421.72;5079799;28;1434;-66
2021/03/12 09:16:06;;;;;;;;;;;;;;;17.42;56.59;101422.69;5089498;28;1979;-66
2021/03/12 09:18:36;;;;;;;;;;;;;;;17.39;56.26;101425.47;5080775;28;1513;-67
2021/03/12 09:21:07;;;;;;;;;;;;;;;17.37;56.38;101424.66;5086882;28;1204;-67
2021/03/12 09:23:41;;;;;;;;;;;;;;;17.37;56.19;101423.81;5073944;28;1596;-66
2021/03/12 09:26:09;;;;;;;;;;;;;;;17.37;56.07;101431.72;5102256;28;1361;-69
2021/03/12 09:28:36;;;;;;;;;;;;;;;17.32;56.12;101428.41;5107585;28;738;-68
2021/03/12 09:31:03;;;;;;;;;;;;;;;17.35;56.28;101431.78;5103284;28;1402;-68
2021/03/12 09:33:31;;;;;;;;;;;;;;;17.31;56.03;101431.97;5085141;28;1285;-69
2021/03/12 09:35:58;;;;;;;;;;;;;;;17.30;55.77;101423.19;5101294;28;1980;-67
2021/03/12 09:38:28;;;;;;;;;;;;;;;17.30;56.46;101422.34;5089372;28;1576;-71
2021/03/12 09:40:55;;;;;;;;;;;;;;;17.56;56.07;101421.31;5090615;28;1228;-65
2021/03/12 09:43:22;;;;;;;;;;;;;;;17.71;56.08;101433.84;5090652;28;892;-67
2021/03/12 09:45:49;;;;;;;;;;;;;;;17.80;56.62;101434.34;5105271;28;1192;-68
2021/03/12 09:48:16;;;;;;;;;;;;;;;17.84;57.38;101433.25;5092148;28;1787;-67
2021/03/12 09:50:42;;;;;;;;;;;;;;;17.88;58.06;101429.59;5092091;28;1349;-67
2021/03/12 09:53:09;;;;;;;;;;;;;;;17.90;58.48;101427.72;5110696;28;790;-67
2021/03/12 09:55:37;;;;;;;;;;;;;;;17.61;55.24;101425.47;5110063;28;1918;-66
2021/03/12 09:58:07;;;;;;;;;;;;;;;17.63;57.81;101428.88;5109602;28;809;-65
2021/03/12 10:00:34;;;;;;;;;;;;;;;17.63;56.53;101418.34;5109872;28;1307;-70
2021/03/12 10:03:01;;;;;;;;;;;;;;;17.77;56.87;101408.09;5112515;28;1169;-64
2021/03/12 10:05:28;;;;;;;;;;;;;;;17.99;57.83;101400.97;5110406;28;1381;-64
2021/03/12 10:08:00;;;;;;;;;;;;;;;17.89;57.85;101397.03;5112106;28;857;-66
2021/03/12 10:10:31;;;;;;;;;;;;;;;17.82;58.69;101397.34;5110608;28;1197;-65
2021/03/12 10:12:59;;;;;;;;;;;;;;;17.80;59.12;101392.16;5109067;28;762;-64
2021/03/12 10:15:36;;;;;;;;;;;;;;;17.81;59.36;101411.47;5108709;28;1901;-65
2021/03/12 10:18:04;;;;;;;;;;;;;;;17.80;59.82;101402.72;5111994;28;1262;-65
2021/03/12 10:20:31;;;;;;;;;;;;;;;17.81;60.12;101398.31;5111936;28;1758;-65
2021/03/12 10:22:58;;;;;;;;;;;;;;;17.82;60.20;101400.00;5112086;28;765;-66
2021/03/12 10:25:28;;;;;;;;;;;;;;;17.83;60.54;101402.56;5112046;28;1212;-66
2021/03/12 10:27:57;;;;;;;;;;;;;;;17.85;60.70;101400.72;5110674;28;1103;-66
2021/03/12 10:30:42;;;;;;;;;;;;;;;17.87;61.26;101398.88;5110275;28;1200;-67
2021/03/12 10:33:10;;;;;;;;;;;;;;;17.94;61.02;101404.72;5111949;28;773;-64
2021/03/12 10:35:40;;;;;;;;;;;;;;;17.94;61.32;101404.72;5111587;28;1977;-65
2021/03/12 10:38:10;;;;;;;;;;;;;;;17.93;61.49;101397.78;5111992;28;851;-64
2021/03/12 10:40:58;;;;;;;;;;;;;;;17.93;61.75;101390.69;5111601;28;1310;-64
2021/03/12 10:43:27;;;;;;;;;;;;;;;17.94;61.83;101383.66;5093192;28;1286;-65
2021/03/12 10:45:54;;;;;;;;;;;;;;;17.94;62.10;101384.50;5093332;28;1228;-64
2021/03/12 10:48:26;;;;;;;;;;;;;;;17.95;62.33;101386.22;5090679;28;1434;-64
2021/03/12 10:50:59;;;;;;;;;;;;;;;17.97;62.28;101379.09;5105666;28;1290;-64
2021/03/12 10:53:26;;;;;;;;;;;;;;;17.98;62.53;101382.59;5111072;28;747;-65
2021/03/12 10:55:59;;;;;;;;;;;;;;;17.98;62.57;101387.88;5111276;28;1902;-64
2021/03/12 10:58:27;;;;;;;;;;;;;;;17.99;62.78;101387.78;5111690;28;790;-65
2021/03/12 11:01:14;;;;;;;;;;;;;;;18.00;62.70;101391.28;5111367;28;1401;-65
2021/03/12 11:03:42;;;;;;;;;;;;;;;18.02;62.84;101392.09;5111274;28;888;-65
2021/03/12 11:06:11;;;;;;;;;;;;;;;18.03;62.90;101396.44;5111417;28;1240;-65
2021/03/12 11:08:37;;;;;;;;;;;;;;;18.04;63.00;101395.50;5109535;28;1114;-65
2021/03/12 11:11:07;;;;;;;;;;;;;;;18.04;63.09;101395.50;5111169;28;1302;-64
2021/03/12 11:13:40;;;;;;;;;;;;;;;18.04;63.33;101395.50;5110294;28;892;-64
2021/03/12 11:16:08;;;;;;;;;;;;;;;18.05;63.36;101389.31;5111225;28;1890;-64
2021/03/12 11:18:36;;;;;;;;;;;;;;;18.06;63.53;101398.06;5111101;28;825;-63
2021/03/12 11:21:05;;;;;;;;;;;;;;;18.08;63.59;101398.88;5094211;28;1240;-63
2021/03/12 11:23:32;;;;;;;;;;;;;;;18.12;63.35;101385.47;5084320;28;1465;-64
2021/03/12 11:25:58;;;;;;;;;;;;;;;18.17;63.42;101390.56;5104543;28;1219;-65
2021/03/12 11:28:26;;;;;;;;;;;;;;;18.16;63.48;101378.28;5099643;28;860;-66
2021/03/12 11:30:55;;;;;;;;;;;;;;;18.17;63.75;101385.28;5090010;28;1257;-67
2021/03/12 11:33:22;;;;;;;;;;;;;;;18.16;63.55;101380.94;5090656;28;979;-65
2021/03/12 11:35:52;;;;;;;;;;;;;;;18.16;63.83;101373.03;5088820;28;1985;-68
2021/03/12 11:38:18;;;;;;;;;;;;;;;18.20;63.12;101364.91;5090389;28;1002;-67
2021/03/12 11:40:45;;;;;;;;;;;;;;;18.20;62.52;101362.28;5090786;28;1256;-66
2021/03/12 11:43:12;;;;;;;;;;;;;;;18.24;62.87;101355.09;5090726;28;789;-65
2021/03/12 11:45:39;;;;;;;;;;;;;;;18.38;63.08;101350.03;5088682;28;1272;-67
2021/03/12 11:48:06;;;;;;;;;;;;;;;18.30;63.40;101339.81;5089852;28;1449;-66
2021/03/12 11:50:35;;;;;;;;;;;;;;;18.23;63.75;101332.28;5090508;28;1382;-67
2021/03/12 11:53:02;;;;;;;;;;;;;;;18.20;63.95;101328.00;5089682;28;1153;-64
2021/03/12 11:55:29;;;;;;;;;;;;;;;18.18;63.69;101327.19;5095392;28;1918;-67
2021/03/12 11:57:55;;;;;;;;;;;;;;;18.23;63.15;101332.28;5103942;28;1152;-65
2021/03/12 12:00:22;;;;;;;;;;;;;;;18.24;63.28;101321.63;5088119;28;1302;-65
2021/03/12 12:02:49;;;;;;;;;;;;;;;18.33;62.80;101323.03;5093894;28;1203;-71
2021/03/12 12:05:17;;;;;;;;;;;;;;;18.28;62.70;101319.72;5105536;28;1549;-69
2021/03/12 12:07:44;;;;;;;;;;;;;;;18.24;62.54;101315.53;5088974;28;1131;-69
2021/03/12 12:10:12;;;;;;;;;;;;;;;18.23;62.56;101311.19;5088754;28;1097;-69
2021/03/12 12:12:44;;;;;;;;;;;;;;;18.31;62.12;101316.94;5090159;28;1118;-71
2021/03/12 12:15:16;;;;;;;;;;;;;;;18.30;61.96;101325.81;5084567;28;1331;-71
2021/03/12 12:17:46;;;;;;;;;;;;;;;18.29;62.13;101329.34;5089749;28;1143;-71
2021/03/12 12:20:13;;;;;;;;;;;;;;;18.28;62.55;101328.50;5108571;28;1216;-69
2021/03/12 12:22:39;;;;;;;;;;;;;;;18.25;62.27;101326.00;5101398;28;1508;-69
2021/03/12 12:25:06;;;;;;;;;;;;;;;18.25;62.09;101319.88;5079067;28;1532;-69
2021/03/12 12:27:35;;;;;;;;;;;;;;;18.25;62.22;101314.59;5072111;28;1549;-70
2021/03/12 12:30:03;;;;;;;;;;;;;;;18.37;61.52;101314.88;5109263;28;1011;-69
2021/03/12 12:32:29;;;;;;;;;;;;;;;18.31;61.63;101330.13;5091511;28;1590;-68
2021/03/12 12:34:56;;;;;;;;;;;;;;;18.38;61.51;101323.66;5106980;28;829;-68
2021/03/12 12:37:23;;;;;;;;;;;;;;;18.35;62.42;101318.53;5107858;28;1910;-68
2021/03/12 12:39:49;;;;;;;;;;;;;;;18.31;62.70;101314.31;5099836;28;1527;-68
2021/03/12 12:42:16;;;;;;;;;;;;;;;18.31;62.88;101323.06;5087895;28;1221;-67
2021/03/12 12:44:42;;;;;;;;;;;;;;;18.29;63.05;101316.16;5088080;28;861;-67
2021/03/12 12:47:09;;;;;;;;;;;;;;;18.30;63.15;101312.63;5088034;28;1341;-67
2021/03/12 12:49:39;;;;;;;;;;;;;;;18.30;63.40;101312.63;5087849;28;1514;-66
2021/03/12 12:52:06;;;;;;;;;;;;;;;18.30;63.41;101315.25;5089702;28;1338;-69
2021/03/12 12:54:32;;;;;;;;;;;;;;;18.33;63.58;101323.03;5067849;28;1581;-66
2021/03/12 12:56:59;;;;;;;;;;;;;;;18.39;63.48;101331.47;5060798;28;1991;-69